CNQ6 weather

Keene/Elmhirst's Resort Seaplane Base
Ontario, Canada

Public forecast

Using degrees Celsius for public forecast. Weather courtesy of forecast.io.

METAR (pilot weather report)

Closest report is Peterborough Airport, 11.3 nm (20.9 km) W. Retrieved 2019/04/21 22:00 UTC (23 seconds ago):

CYPQ 212200Z AUTO 33007KT 9SM OVC022 11/07 A3009 RMK SLP195

TAF (pilot weather forecast)

Closest forecast is Peterborough Airport, 11.3 nm (20.9 km) W. Retrieved 2019/04/21 20:00 UTC (2 hours ago):

TAF CYPQ 211938Z 2120/2202 32007KT P6SM OVC020 TEMPO 2120/2122 SCT015 OVC025 FM212200 35005KT P6SM BKN025 TEMPO 2122/2202 BKN020 RMK FCST BASED ON AUTO OBS. NXT FCST WILL BE ISSUED AT 220945Z